Metar - Laupheim Airfield

[Source: ADDS]
METAR
ETHL 270320Z 00000KT 9999 MIFG 19/18 Q1024 BLU+ =
TAF

Notice: Undefined index: sun in /homepages/1/d158740339/htdocs/joomla/modules/mod_wx/tmpl/default.php on line 13

Metar - Augsburg Airfield

[Source: ADDS]
METAR
EDMA 270350Z AUTO VRB01KT 9999 // NCD 19/18 Q1023 =
EDMA 261700Z 2618/2703 33005KT CAVOK BECMG 2618/2620 VRB03KT
TAF
EDMA 261700Z 2618/2703 33005KT CAVOK BECMG 2618/2620 VRB03KT =
SR / SS: 03:20 / 19:24 UTC (Günzburg 2019-06-27)

Metar - Memmingen Airfield

[Source: ADDS]
METAR
EDJA 270350Z 21003KT CAVOK 17/16 Q1025 =
EDJA 261700Z 2618/2703 03005KT CAVOK
TAF
EDJA 261700Z 2618/2703 03005KT CAVOK =

Notice: Undefined index: sun in /homepages/1/d158740339/htdocs/joomla/modules/mod_wx/tmpl/default.php on line 13

Metar - Neuburg/Donau Airfield

[Source: ADDS]
METAR
ETSN 270320Z VRB01KT 9999 19/18 Q1023 BLU+ =
ETSN 270100Z 2702/2711 24005KT 9999 NSW FEW300 PROB30 2702/2705 VRB02KT 5000 BR SKC BY ETGL
TAF
ETSN 270100Z 2702/2711 24005KT 9999 NSW FEW300 PROB30 2702/2705 VRB02KT 5000 BR SKC BY ETGL =

Notice: Undefined index: sun in /homepages/1/d158740339/htdocs/joomla/modules/mod_wx/tmpl/default.php on line 13

Metar - Stuttgart Airfield

[Source: ADDS]
METAR
EDDS 270350Z 22001KT CAVOK 21/19 Q1023 =
EDDS 262300Z 2700/2724 30004KT CAVOK BECMG 2708/2710 01007KT BECMG 2711/2713 01012KT BECMG 2718/2720 36006KT
TAF
EDDS 262300Z 2700/2724 30004KT CAVOK BECMG 2708/2710 01007KT BECMG 2711/2713 01012KT BECMG 2718/2720 36006KT =

Notice: Undefined index: sun in /homepages/1/d158740339/htdocs/joomla/modules/mod_wx/tmpl/default.php on line 13

Metar - Niederstetten Airfield

[Source: ADDS]
METAR
ETHN 270320Z 01005KT 9999 21/18 Q1024 BLU+ =
TAF

Notice: Undefined index: sun in /homepages/1/d158740339/htdocs/joomla/modules/mod_wx/tmpl/default.php on line 13